sensor_id;sensor_type;location;lat;lon;timestamp;pressure;altitude;pressure_sealevel;temperature
76898;BMP180;65856;52.178;21.176;2023-11-21T00:00:16;99765.40;;;1.00
76898;BMP180;65856;52.178;21.176;2023-11-21T00:02:44;99763.40;;;1.00
76898;BMP180;65856;52.178;21.176;2023-11-21T00:05:12;99762.60;;;1.00
76898;BMP180;65856;52.178;21.176;2023-11-21T00:07:43;99756.20;;;0.94
76898;BMP180;65856;52.178;21.176;2023-11-21T00:10:10;99748.60;;;0.90
76898;BMP180;65856;52.178;21.176;2023-11-21T00:12:37;99750.80;;;0.84
76898;BMP180;65856;52.178;21.176;2023-11-21T00:15:04;99749.80;;;0.82
76898;BMP180;65856;52.178;21.176;2023-11-21T00:17:37;99758.00;;;0.80
76898;BMP180;65856;52.178;21.176;2023-11-21T00:20:05;99760.80;;;0.80
76898;BMP180;65856;52.178;21.176;2023-11-21T00:22:36;99766.60;;;0.80
76898;BMP180;65856;52.178;21.176;2023-11-21T00:25:02;99769.00;;;0.80
76898;BMP180;65856;52.178;21.176;2023-11-21T00:27:29;99776.00;;;0.80
76898;BMP180;65856;52.178;21.176;2023-11-21T00:29:55;99784.80;;;0.80
76898;BMP180;65856;52.178;21.176;2023-11-21T00:32:21;99783.60;;;0.80
76898;BMP180;65856;52.178;21.176;2023-11-21T00:34:46;99787.20;;;0.80
76898;BMP180;65856;52.178;21.176;2023-11-21T00:37:12;99778.60;;;0.80
76898;BMP180;65856;52.178;21.176;2023-11-21T00:39:37;99780.20;;;0.78
76898;BMP180;65856;52.178;21.176;2023-11-21T00:42:03;99787.20;;;0.76
76898;BMP180;65856;52.178;21.176;2023-11-21T00:44:30;99787.00;;;0.80
76898;BMP180;65856;52.178;21.176;2023-11-21T00:46:55;99787.80;;;0.80
76898;BMP180;65856;52.178;21.176;2023-11-21T00:49:21;99793.00;;;0.80
76898;BMP180;65856;52.178;21.176;2023-11-21T00:51:47;99798.60;;;0.80
76898;BMP180;65856;52.178;21.176;2023-11-21T00:54:12;99800.00;;;0.78
76898;BMP180;65856;52.178;21.176;2023-11-21T00:56:38;99804.20;;;0.70
76898;BMP180;65856;52.178;21.176;2023-11-21T00:59:05;99805.40;;;0.70
76898;BMP180;65856;52.178;21.176;2023-11-21T01:01:30;99812.60;;;0.70
76898;BMP180;65856;52.178;21.176;2023-11-21T01:03:56;99811.20;;;0.70
76898;BMP180;65856;52.178;21.176;2023-11-21T01:06:21;99806.80;;;0.60
76898;BMP180;65856;52.178;21.176;2023-11-21T01:08:47;99805.00;;;0.60
76898;BMP180;65856;52.178;21.176;2023-11-21T01:11:13;99805.40;;;0.60
76898;BMP180;65856;52.178;21.176;2023-11-21T01:13:39;99805.00;;;0.60
76898;BMP180;65856;52.178;21.176;2023-11-21T01:16:05;99809.40;;;0.60
76898;BMP180;65856;52.178;21.176;2023-11-21T01:18:32;99811.80;;;0.60
76898;BMP180;65856;52.178;21.176;2023-11-21T01:20:58;99812.40;;;0.60
76898;BMP180;65856;52.178;21.176;2023-11-21T01:23:26;99813.60;;;0.60
76898;BMP180;65856;52.178;21.176;2023-11-21T01:25:52;99814.60;;;0.60
76898;BMP180;65856;52.178;21.176;2023-11-21T01:28:18;99819.60;;;0.60
76898;BMP180;65856;52.178;21.176;2023-11-21T01:30:45;99819.80;;;0.66
76898;BMP180;65856;52.178;21.176;2023-11-21T01:33:11;99823.00;;;0.70
76898;BMP180;65856;52.178;21.176;2023-11-21T01:35:37;99825.60;;;0.70
76898;BMP180;65856;52.178;21.176;2023-11-21T01:38:02;99817.60;;;0.66
76898;BMP180;65856;52.178;21.176;2023-11-21T01:40:29;99823.20;;;0.70
76898;BMP180;65856;52.178;21.176;2023-11-21T01:42:55;99824.60;;;0.68
76898;BMP180;65856;52.178;21.176;2023-11-21T01:45:22;99822.40;;;0.60
76898;BMP180;65856;52.178;21.176;2023-11-21T01:47:50;99821.00;;;0.60
76898;BMP180;65856;52.178;21.176;2023-11-21T01:50:17;99813.40;;;0.52
76898;BMP180;65856;52.178;21.176;2023-11-21T01:52:46;99823.20;;;0.60
76898;BMP180;65856;52.178;21.176;2023-11-21T01:55:16;99823.20;;;0.60
76898;BMP180;65856;52.178;21.176;2023-11-21T01:57:46;99830.00;;;0.52
76898;BMP180;65856;52.178;21.176;2023-11-21T02:00:13;99827.00;;;0.60
76898;BMP180;65856;52.178;21.176;2023-11-21T02:02:48;99828.80;;;0.60
76898;BMP180;65856;52.178;21.176;2023-11-21T02:05:16;99828.40;;;0.50
76898;BMP180;65856;52.178;21.176;2023-11-21T02:07:44;99827.80;;;0.50
76898;BMP180;65856;52.178;21.176;2023-11-21T02:10:14;99829.80;;;0.50
76898;BMP180;65856;52.178;21.176;2023-11-21T02:12:42;99831.40;;;0.42
76898;BMP180;65856;52.178;21.176;2023-11-21T02:15:13;99832.20;;;0.50
76898;BMP180;65856;52.178;21.176;2023-11-21T02:17:46;99830.20;;;0.50
76898;BMP180;65856;52.178;21.176;2023-11-21T02:20:17;99829.80;;;0.50
76898;BMP180;65856;52.178;21.176;2023-11-21T02:22:53;99831.00;;;0.48
76898;BMP180;65856;52.178;21.176;2023-11-21T02:25:31;99828.80;;;0.42
76898;BMP180;65856;52.178;21.176;2023-11-21T02:28:00;99836.80;;;0.40
76898;BMP180;65856;52.178;21.176;2023-11-21T02:30:27;99843.00;;;0.40
76898;BMP180;65856;52.178;21.176;2023-11-21T02:32:54;99842.00;;;0.40
76898;BMP180;65856;52.178;21.176;2023-11-21T02:35:21;99838.60;;;0.40
76898;BMP180;65856;52.178;21.176;2023-11-21T02:37:47;99846.60;;;0.40
76898;BMP180;65856;52.178;21.176;2023-11-21T02:40:14;99853.20;;;0.40
76898;BMP180;65856;52.178;21.176;2023-11-21T02:42:46;99852.80;;;0.40
76898;BMP180;65856;52.178;21.176;2023-11-21T02:45:14;99849.00;;;0.44
76898;BMP180;65856;52.178;21.176;2023-11-21T02:47:42;99854.40;;;0.50
76898;BMP180;65856;52.178;21.176;2023-11-21T02:50:09;99855.20;;;0.50
76898;BMP180;65856;52.178;21.176;2023-11-21T02:52:35;99855.00;;;0.48
76898;BMP180;65856;52.178;21.176;2023-11-21T02:55:02;99853.20;;;0.42
76898;BMP180;65856;52.178;21.176;2023-11-21T02:57:28;99852.00;;;0.40
76898;BMP180;65856;52.178;21.176;2023-11-21T02:59:54;99851.40;;;0.38
76898;BMP180;65856;52.178;21.176;2023-11-21T03:02:20;99849.20;;;0.36
76898;BMP180;65856;52.178;21.176;2023-11-21T03:04:46;99847.80;;;0.40
76898;BMP180;65856;52.178;21.176;2023-11-21T03:07:13;99850.40;;;0.40
76898;BMP180;65856;52.178;21.176;2023-11-21T03:09:39;99854.40;;;0.40
76898;BMP180;65856;52.178;21.176;2023-11-21T03:12:05;99858.40;;;0.40
76898;BMP180;65856;52.178;21.176;2023-11-21T03:14:31;99857.40;;;0.40
76898;BMP180;65856;52.178;21.176;2023-11-21T03:16:57;99861.60;;;0.38
76898;BMP180;65856;52.178;21.176;2023-11-21T03:19:22;99856.40;;;0.32
76898;BMP180;65856;52.178;21.176;2023-11-21T03:21:49;99866.60;;;0.30
76898;BMP180;65856;52.178;21.176;2023-11-21T03:24:14;99866.60;;;0.30
76898;BMP180;65856;52.178;21.176;2023-11-21T03:26:45;99866.20;;;0.38
76898;BMP180;65856;52.178;21.176;2023-11-21T03:29:12;99865.80;;;0.30
76898;BMP180;65856;52.178;21.176;2023-11-21T03:31:37;99864.40;;;0.30
76898;BMP180;65856;52.178;21.176;2023-11-21T03:34:03;99872.60;;;0.30
76898;BMP180;65856;52.178;21.176;2023-11-21T03:36:29;99876.20;;;0.30
76898;BMP180;65856;52.178;21.176;2023-11-21T03:38:54;99878.00;;;0.30
76898;BMP180;65856;52.178;21.176;2023-11-21T03:41:20;99880.40;;;0.22
76898;BMP180;65856;52.178;21.176;2023-11-21T03:43:46;99880.40;;;0.22
76898;BMP180;65856;52.178;21.176;2023-11-21T03:46:11;99885.40;;;0.20
76898;BMP180;65856;52.178;21.176;2023-11-21T03:48:38;99886.80;;;0.20
76898;BMP180;65856;52.178;21.176;2023-11-21T03:51:04;99890.80;;;0.20
76898;BMP180;65856;52.178;21.176;2023-11-21T03:53:29;99888.00;;;0.20
76898;BMP180;65856;52.178;21.176;2023-11-21T03:55:55;99889.20;;;0.20
76898;BMP180;65856;52.178;21.176;2023-11-21T03:58:20;99892.40;;;0.18
76898;BMP180;65856;52.178;21.176;2023-11-21T04:00:47;99894.20;;;0.18
76898;BMP180;65856;52.178;21.176;2023-11-21T04:03:14;99897.20;;;0.18
76898;BMP180;65856;52.178;21.176;2023-11-21T04:05:40;99897.40;;;0.20
76898;BMP180;65856;52.178;21.176;2023-11-21T04:08:06;99899.00;;;0.16
76898;BMP180;65856;52.178;21.176;2023-11-21T04:10:32;99898.40;;;0.20
76898;BMP180;65856;52.178;21.176;2023-11-21T04:12:58;99895.20;;;0.20
76898;BMP180;65856;52.178;21.176;2023-11-21T04:15:23;99897.60;;;0.20
76898;BMP180;65856;52.178;21.176;2023-11-21T04:17:49;99901.00;;;0.20
76898;BMP180;65856;52.178;21.176;2023-11-21T04:20:14;99906.80;;;0.20
76898;BMP180;65856;52.178;21.176;2023-11-21T04:22:42;99911.60;;;0.20
76898;BMP180;65856;52.178;21.176;2023-11-21T04:25:14;99908.00;;;0.18
76898;BMP180;65856;52.178;21.176;2023-11-21T04:27:41;99908.80;;;0.10
76898;BMP180;65856;52.178;21.176;2023-11-21T04:30:11;99911.60;;;0.12
76898;BMP180;65856;52.178;21.176;2023-11-21T04:32:37;99912.20;;;0.18
76898;BMP180;65856;52.178;21.176;2023-11-21T04:35:05;99910.00;;;0.20
76898;BMP180;65856;52.178;21.176;2023-11-21T04:37:31;99912.80;;;0.20
76898;BMP180;65856;52.178;21.176;2023-11-21T04:39:57;99915.80;;;0.20
76898;BMP180;65856;52.178;21.176;2023-11-21T04:42:22;99913.00;;;0.20
76898;BMP180;65856;52.178;21.176;2023-11-21T04:44:49;99919.00;;;0.20
76898;BMP180;65856;52.178;21.176;2023-11-21T04:47:14;99915.40;;;0.20
76898;BMP180;65856;52.178;21.176;2023-11-21T04:49:43;99916.80;;;0.18
76898;BMP180;65856;52.178;21.176;2023-11-21T04:52:09;99916.40;;;0.10
76898;BMP180;65856;52.178;21.176;2023-11-21T04:54:35;99919.00;;;0.10
76898;BMP180;65856;52.178;21.176;2023-11-21T04:57:01;99915.40;;;0.10
76898;BMP180;65856;52.178;21.176;2023-11-21T04:59:27;99926.00;;;0.10
76898;BMP180;65856;52.178;21.176;2023-11-21T05:01:53;99925.80;;;0.10
76898;BMP180;65856;52.178;21.176;2023-11-21T05:04:20;99930.00;;;0.20
76898;BMP180;65856;52.178;21.176;2023-11-21T05:06:48;99928.80;;;0.20
76898;BMP180;65856;52.178;21.176;2023-11-21T05:09:13;99933.40;;;0.20
76898;BMP180;65856;52.178;21.176;2023-11-21T05:11:40;99930.20;;;0.14
76898;BMP180;65856;52.178;21.176;2023-11-21T05:14:06;99937.60;;;0.20
76898;BMP180;65856;52.178;21.176;2023-11-21T05:16:31;99942.40;;;0.18
76898;BMP180;65856;52.178;21.176;2023-11-21T05:18:57;99945.60;;;0.10
76898;BMP180;65856;52.178;21.176;2023-11-21T05:21:26;99953.60;;;0.12
76898;BMP180;65856;52.178;21.176;2023-11-21T05:23:52;99950.80;;;0.20
76898;BMP180;65856;52.178;21.176;2023-11-21T05:26:18;99952.80;;;0.20
76898;BMP180;65856;52.178;21.176;2023-11-21T05:28:43;99957.00;;;0.20
76898;BMP180;65856;52.178;21.176;2023-11-21T05:31:09;99959.00;;;0.20
76898;BMP180;65856;52.178;21.176;2023-11-21T05:33:36;99956.20;;;0.20
76898;BMP180;65856;52.178;21.176;2023-11-21T05:36:02;99963.20;;;0.18
76898;BMP180;65856;52.178;21.176;2023-11-21T05:38:28;99968.20;;;0.18
76898;BMP180;65856;52.178;21.176;2023-11-21T05:40:55;99974.00;;;0.20
76898;BMP180;65856;52.178;21.176;2023-11-21T05:43:20;99979.60;;;0.20
76898;BMP180;65856;52.178;21.176;2023-11-21T05:45:46;99976.80;;;0.20
76898;BMP180;65856;52.178;21.176;2023-11-21T05:48:11;99980.80;;;0.20
76898;BMP180;65856;52.178;21.176;2023-11-21T05:50:37;99982.00;;;0.20
76898;BMP180;65856;52.178;21.176;2023-11-21T05:53:03;99984.00;;;0.22
76898;BMP180;65856;52.178;21.176;2023-11-21T05:55:29;99983.00;;;0.20
76898;BMP180;65856;52.178;21.176;2023-11-21T05:57:54;99985.00;;;0.20
76898;BMP180;65856;52.178;21.176;2023-11-21T06:00:20;99989.40;;;0.18
76898;BMP180;65856;52.178;21.176;2023-11-21T06:02:52;99996.80;;;0.10
76898;BMP180;65856;52.178;21.176;2023-11-21T06:05:21;99996.80;;;0.12
76898;BMP180;65856;52.178;21.176;2023-11-21T06:07:50;99998.20;;;0.10
76898;BMP180;65856;52.178;21.176;2023-11-21T06:10:16;100000.20;;;0.10
76898;BMP180;65856;52.178;21.176;2023-11-21T06:12:44;99998.80;;;0.10
76898;BMP180;65856;52.178;21.176;2023-11-21T06:15:11;99994.40;;;0.10
76898;BMP180;65856;52.178;21.176;2023-11-21T06:17:41;99995.40;;;0.10
76898;BMP180;65856;52.178;21.176;2023-11-21T06:20:10;100000.00;;;0.10
76898;BMP180;65856;52.178;21.176;2023-11-21T06:22:41;100002.80;;;0.10
76898;BMP180;65856;52.178;21.176;2023-11-21T06:25:08;100009.00;;;0.10
76898;BMP180;65856;52.178;21.176;2023-11-21T06:27:40;100012.40;;;0.10
76898;BMP180;65856;52.178;21.176;2023-11-21T06:30:07;100015.60;;;0.00
76898;BMP180;65856;52.178;21.176;2023-11-21T06:32:38;100015.40;;;0.12
76898;BMP180;65856;52.178;21.176;2023-11-21T06:35:07;100022.40;;;0.70
76898;BMP180;65856;52.178;21.176;2023-11-21T06:37:33;100022.80;;;0.60
76898;BMP180;65856;52.178;21.176;2023-11-21T06:40:00;100026.60;;;0.50
76898;BMP180;65856;52.178;21.176;2023-11-21T06:42:26;100032.80;;;0.40
76898;BMP180;65856;52.178;21.176;2023-11-21T06:44:53;100030.40;;;0.40
76898;BMP180;65856;52.178;21.176;2023-11-21T06:47:25;100036.80;;;0.30
76898;BMP180;65856;52.178;21.176;2023-11-21T06:49:52;100039.00;;;0.30
76898;BMP180;65856;52.178;21.176;2023-11-21T06:52:18;100051.00;;;0.28
76898;BMP180;65856;52.178;21.176;2023-11-21T06:54:45;100051.20;;;0.20
76898;BMP180;65856;52.178;21.176;2023-11-21T06:57:11;100057.00;;;0.20
76898;BMP180;65856;52.178;21.176;2023-11-21T06:59:37;100055.80;;;0.20
76898;BMP180;65856;52.178;21.176;2023-11-21T07:02:03;100058.60;;;0.20
76898;BMP180;65856;52.178;21.176;2023-11-21T07:04:32;100059.40;;;0.20
76898;BMP180;65856;52.178;21.176;2023-11-21T07:06:59;100059.20;;;0.20
76898;BMP180;65856;52.178;21.176;2023-11-21T07:09:24;100066.80;;;0.20
76898;BMP180;65856;52.178;21.176;2023-11-21T07:11:52;100060.20;;;0.20
76898;BMP180;65856;52.178;21.176;2023-11-21T07:14:18;100065.40;;;0.20
76898;BMP180;65856;52.178;21.176;2023-11-21T07:16:45;100064.40;;;0.20
76898;BMP180;65856;52.178;21.176;2023-11-21T07:19:11;100063.40;;;0.20
76898;BMP180;65856;52.178;21.176;2023-11-21T07:21:38;100064.60;;;0.20
76898;BMP180;65856;52.178;21.176;2023-11-21T07:24:06;100069.40;;;0.26
76898;BMP180;65856;52.178;21.176;2023-11-21T07:26:34;100077.00;;;0.30
76898;BMP180;65856;52.178;21.176;2023-11-21T07:29:04;100076.40;;;0.30
76898;BMP180;65856;52.178;21.176;2023-11-21T07:31:30;100083.20;;;0.30
76898;BMP180;65856;52.178;21.176;2023-11-21T07:33:56;100085.80;;;0.20
76898;BMP180;65856;52.178;21.176;2023-11-21T07:36:24;100085.00;;;0.20
76898;BMP180;65856;52.178;21.176;2023-11-21T07:38:51;100083.60;;;0.20
76898;BMP180;65856;52.178;21.176;2023-11-21T07:41:17;100083.20;;;0.20
76898;BMP180;65856;52.178;21.176;2023-11-21T07:43:45;100089.00;;;0.20
76898;BMP180;65856;52.178;21.176;2023-11-21T07:46:11;100087.00;;;0.20
76898;BMP180;65856;52.178;21.176;2023-11-21T07:48:42;100089.80;;;0.20
76898;BMP180;65856;52.178;21.176;2023-11-21T07:51:09;100086.60;;;0.20
76898;BMP180;65856;52.178;21.176;2023-11-21T07:53:35;100085.20;;;0.20
76898;BMP180;65856;52.178;21.176;2023-11-21T07:56:06;100084.40;;;0.20
76898;BMP180;65856;52.178;21.176;2023-11-21T07:58:36;100087.20;;;0.28
76898;BMP180;65856;52.178;21.176;2023-11-21T08:01:03;100084.20;;;0.30
76898;BMP180;65856;52.178;21.176;2023-11-21T08:03:30;100081.80;;;0.28
76898;BMP180;65856;52.178;21.176;2023-11-21T08:05:59;100079.80;;;0.20
76898;BMP180;65856;52.178;21.176;2023-11-21T08:08:25;100082.60;;;0.20
76898;BMP180;65856;52.178;21.176;2023-11-21T08:10:51;100082.60;;;0.20
76898;BMP180;65856;52.178;21.176;2023-11-21T08:13:28;100090.00;;;0.20
76898;BMP180;65856;52.178;21.176;2023-11-21T08:15:55;100096.80;;;0.20
76898;BMP180;65856;52.178;21.176;2023-11-21T08:18:22;100099.00;;;0.20
76898;BMP180;65856;52.178;21.176;2023-11-21T08:20:48;100106.40;;;0.20
76898;BMP180;65856;52.178;21.176;2023-11-21T08:23:17;100114.40;;;0.20
76898;BMP180;65856;52.178;21.176;2023-11-21T08:25:45;100113.40;;;0.18
76898;BMP180;65856;52.178;21.176;2023-11-21T08:28:12;100117.20;;;0.20
76898;BMP180;65856;52.178;21.176;2023-11-21T08:30:40;100117.00;;;0.20
76898;BMP180;65856;52.178;21.176;2023-11-21T08:33:07;100120.20;;;0.20
76898;BMP180;65856;52.178;21.176;2023-11-21T08:35:34;100123.00;;;0.20
76898;BMP180;65856;52.178;21.176;2023-11-21T08:38:00;100123.60;;;0.20
76898;BMP180;65856;52.178;21.176;2023-11-21T08:40:26;100123.60;;;0.20
76898;BMP180;65856;52.178;21.176;2023-11-21T08:42:51;100126.80;;;0.20
76898;BMP180;65856;52.178;21.176;2023-11-21T08:45:19;100126.20;;;0.22
76898;BMP180;65856;52.178;21.176;2023-11-21T08:47:45;100132.80;;;0.20
76898;BMP180;65856;52.178;21.176;2023-11-21T08:50:11;100135.20;;;0.20
76898;BMP180;65856;52.178;21.176;2023-11-21T08:52:41;100135.00;;;0.20
76898;BMP180;65856;52.178;21.176;2023-11-21T08:55:08;100133.80;;;0.20
76898;BMP180;65856;52.178;21.176;2023-11-21T08:57:35;100136.20;;;0.20
76898;BMP180;65856;52.178;21.176;2023-11-21T09:00:03;100139.00;;;0.20
76898;BMP180;65856;52.178;21.176;2023-11-21T09:02:33;100135.00;;;0.20
76898;BMP180;65856;52.178;21.176;2023-11-21T09:05:00;100136.00;;;0.20
76898;BMP180;65856;52.178;21.176;2023-11-21T09:07:29;100142.00;;;0.20
76898;BMP180;65856;52.178;21.176;2023-11-21T09:09:55;100140.60;;;0.30
76898;BMP180;65856;52.178;21.176;2023-11-21T09:12:21;100144.20;;;0.30
76898;BMP180;65856;52.178;21.176;2023-11-21T09:14:47;100145.40;;;0.30
76898;BMP180;65856;52.178;21.176;2023-11-21T09:17:13;100147.00;;;0.30
76898;BMP180;65856;52.178;21.176;2023-11-21T09:19:40;100147.00;;;0.34
76898;BMP180;65856;52.178;21.176;2023-11-21T09:22:06;100146.40;;;0.30
76898;BMP180;65856;52.178;21.176;2023-11-21T09:24:33;100151.20;;;0.30
76898;BMP180;65856;52.178;21.176;2023-11-21T09:26:59;100150.80;;;0.30
76898;BMP180;65856;52.178;21.176;2023-11-21T09:29:28;100156.60;;;0.20
76898;BMP180;65856;52.178;21.176;2023-11-21T09:31:55;100164.60;;;0.20
76898;BMP180;65856;52.178;21.176;2023-11-21T09:34:22;100159.20;;;0.20
76898;BMP180;65856;52.178;21.176;2023-11-21T09:36:47;100161.60;;;0.20
76898;BMP180;65856;52.178;21.176;2023-11-21T09:39:14;100163.00;;;0.20
76898;BMP180;65856;52.178;21.176;2023-11-21T09:41:49;100155.40;;;0.20
76898;BMP180;65856;52.178;21.176;2023-11-21T09:44:31;100161.00;;;0.28
76898;BMP180;65856;52.178;21.176;2023-11-21T09:47:01;100163.60;;;0.30
76898;BMP180;65856;52.178;21.176;2023-11-21T09:49:28;100161.60;;;0.40
76898;BMP180;65856;52.178;21.176;2023-11-21T09:51:58;100157.80;;;0.40
76898;BMP180;65856;52.178;21.176;2023-11-21T09:54:25;100156.40;;;0.42
76898;BMP180;65856;52.178;21.176;2023-11-21T09:56:51;100154.00;;;0.50
76898;BMP180;65856;52.178;21.176;2023-11-21T09:59:17;100153.40;;;0.50
76898;BMP180;65856;52.178;21.176;2023-11-21T10:01:44;100159.00;;;0.50
76898;BMP180;65856;52.178;21.176;2023-11-21T10:04:12;100164.20;;;0.50
76898;BMP180;65856;52.178;21.176;2023-11-21T10:06:41;100169.80;;;0.50
76898;BMP180;65856;52.178;21.176;2023-11-21T10:09:10;100171.80;;;0.50
76898;BMP180;65856;52.178;21.176;2023-11-21T10:11:41;100175.60;;;0.48
76898;BMP180;65856;52.178;21.176;2023-11-21T10:14:11;100171.80;;;0.50
76898;BMP180;65856;52.178;21.176;2023-11-21T10:16:41;100175.20;;;0.50
76898;BMP180;65856;52.178;21.176;2023-11-21T10:19:10;100176.60;;;0.50
76898;BMP180;65856;52.178;21.176;2023-11-21T10:21:38;100179.20;;;0.50
76898;BMP180;65856;52.178;21.176;2023-11-21T10:24:04;100179.60;;;0.60
76898;BMP180;65856;52.178;21.176;2023-11-21T10:26:32;100181.00;;;0.60
76898;BMP180;65856;52.178;21.176;2023-11-21T10:29:01;100179.80;;;0.60
76898;BMP180;65856;52.178;21.176;2023-11-21T10:31:31;100184.40;;;0.60
76898;BMP180;65856;52.178;21.176;2023-11-21T10:34:17;100180.20;;;0.60
76898;BMP180;65856;52.178;21.176;2023-11-21T10:36:44;100184.80;;;0.60
76898;BMP180;65856;52.178;21.176;2023-11-21T10:39:20;100185.60;;;0.60
76898;BMP180;65856;52.178;21.176;2023-11-21T10:41:49;100183.40;;;0.60
76898;BMP180;65856;52.178;21.176;2023-11-21T10:44:19;100187.80;;;0.60
76898;BMP180;65856;52.178;21.176;2023-11-21T10:46:54;100182.00;;;0.60
76898;BMP180;65856;52.178;21.176;2023-11-21T10:49:26;100185.60;;;0.60
76898;BMP180;65856;52.178;21.176;2023-11-21T10:51:53;100186.00;;;0.60
76898;BMP180;65856;52.178;21.176;2023-11-21T10:54:21;100187.20;;;0.60
76898;BMP180;65856;52.178;21.176;2023-11-21T10:57:00;100186.60;;;0.50
76898;BMP180;65856;52.178;21.176;2023-11-21T10:59:30;100188.40;;;0.58
76898;BMP180;65856;52.178;21.176;2023-11-21T11:02:18;100187.00;;;0.60
76898;BMP180;65856;52.178;21.176;2023-11-21T11:04:48;100190.80;;;0.60
76898;BMP180;65856;52.178;21.176;2023-11-21T11:07:15;100193.80;;;0.64
76898;BMP180;65856;52.178;21.176;2023-11-21T11:09:44;100193.60;;;0.70
76898;BMP180;65856;52.178;21.176;2023-11-21T11:12:11;100196.00;;;0.70
76898;BMP180;65856;52.178;21.176;2023-11-21T11:14:40;100196.00;;;0.70
76898;BMP180;65856;52.178;21.176;2023-11-21T11:17:07;100190.60;;;0.72
76898;BMP180;65856;52.178;21.176;2023-11-21T11:19:35;100201.00;;;0.80
76898;BMP180;65856;52.178;21.176;2023-11-21T11:22:37;100205.40;;;0.80
76898;BMP180;65856;52.178;21.176;2023-11-21T11:25:30;100205.60;;;0.84
76898;BMP180;65856;52.178;21.176;2023-11-21T11:28:27;100207.00;;;0.80
76898;BMP180;65856;52.178;21.176;2023-11-21T11:34:01;100206.00;;;0.70
76898;BMP180;65856;52.178;21.176;2023-11-21T11:37:08;100205.20;;;0.60
76898;BMP180;65856;52.178;21.176;2023-11-21T11:39:39;100207.20;;;0.54
76898;BMP180;65856;52.178;21.176;2023-11-21T11:42:12;100202.00;;;0.50
76898;BMP180;65856;52.178;21.176;2023-11-21T11:47:28;100208.20;;;0.40
76898;BMP180;65856;52.178;21.176;2023-11-21T11:52:47;100216.20;;;0.42
76898;BMP180;65856;52.178;21.176;2023-11-21T11:55:19;100212.80;;;0.50
76898;BMP180;65856;52.178;21.176;2023-11-21T11:57:53;100216.60;;;0.50
76898;BMP180;65856;52.178;21.176;2023-11-21T12:02:55;100217.00;;;0.60
76898;BMP180;65856;52.178;21.176;2023-11-21T12:05:26;100216.00;;;0.50
76898;BMP180;65856;52.178;21.176;2023-11-21T12:08:01;100223.00;;;0.50
76898;BMP180;65856;52.178;21.176;2023-11-21T12:10:30;100225.00;;;0.40
76898;BMP180;65856;52.178;21.176;2023-11-21T12:13:04;100228.80;;;0.30
76898;BMP180;65856;52.178;21.176;2023-11-21T12:15:33;100229.40;;;0.38
76898;BMP180;65856;52.178;21.176;2023-11-21T12:18:00;100228.40;;;0.40
76898;BMP180;65856;52.178;21.176;2023-11-21T12:20:27;100227.20;;;0.40
76898;BMP180;65856;52.178;21.176;2023-11-21T12:22:55;100235.00;;;0.40
76898;BMP180;65856;52.178;21.176;2023-11-21T12:25:28;100231.80;;;0.42
76898;BMP180;65856;52.178;21.176;2023-11-21T12:27:55;100238.60;;;0.40
76898;BMP180;65856;52.178;21.176;2023-11-21T12:30:25;100240.40;;;0.40
76898;BMP180;65856;52.178;21.176;2023-11-21T12:32:55;100242.20;;;0.40
76898;BMP180;65856;52.178;21.176;2023-11-21T12:35:26;100236.00;;;0.40
76898;BMP180;65856;52.178;21.176;2023-11-21T12:37:54;100241.40;;;0.40
76898;BMP180;65856;52.178;21.176;2023-11-21T12:40:20;100241.00;;;0.50
76898;BMP180;65856;52.178;21.176;2023-11-21T12:42:52;100243.60;;;0.42
76898;BMP180;65856;52.178;21.176;2023-11-21T12:45:27;100249.20;;;0.48
76898;BMP180;65856;52.178;21.176;2023-11-21T12:47:57;100250.20;;;0.50
76898;BMP180;65856;52.178;21.176;2023-11-21T12:50:26;100258.80;;;0.46
76898;BMP180;65856;52.178;21.176;2023-11-21T12:53:06;100262.60;;;0.40
76898;BMP180;65856;52.178;21.176;2023-11-21T12:55:38;100257.40;;;0.40
76898;BMP180;65856;52.178;21.176;2023-11-21T12:58:07;100259.20;;;0.40
76898;BMP180;65856;52.178;21.176;2023-11-21T13:00:38;100257.20;;;0.40
76898;BMP180;65856;52.178;21.176;2023-11-21T13:03:13;100251.60;;;0.30
76898;BMP180;65856;52.178;21.176;2023-11-21T13:05:47;100257.40;;;0.30
76898;BMP180;65856;52.178;21.176;2023-11-21T13:08:17;100256.40;;;0.20
76898;BMP180;65856;52.178;21.176;2023-11-21T13:10:51;100259.60;;;0.20
76898;BMP180;65856;52.178;21.176;2023-11-21T13:13:19;100261.20;;;0.26
76898;BMP180;65856;52.178;21.176;2023-11-21T13:15:53;100268.00;;;0.30
76898;BMP180;65856;52.178;21.176;2023-11-21T13:18:24;100269.80;;;0.30
76898;BMP180;65856;52.178;21.176;2023-11-21T13:20:57;100279.00;;;0.28
76898;BMP180;65856;52.178;21.176;2023-11-21T13:23:26;100282.40;;;0.20
76898;BMP180;65856;52.178;21.176;2023-11-21T13:25:53;100282.40;;;0.20
76898;BMP180;65856;52.178;21.176;2023-11-21T13:28:19;100283.00;;;0.20
76898;BMP180;65856;52.178;21.176;2023-11-21T13:30:47;100286.20;;;0.20
76898;BMP180;65856;52.178;21.176;2023-11-21T13:33:14;100282.60;;;0.10
76898;BMP180;65856;52.178;21.176;2023-11-21T13:35:46;100290.00;;;0.10
76898;BMP180;65856;52.178;21.176;2023-11-21T13:38:15;100294.80;;;0.10
76898;BMP180;65856;52.178;21.176;2023-11-21T13:40:54;100298.20;;;0.10
76898;BMP180;65856;52.178;21.176;2023-11-21T13:43:24;100300.40;;;0.16
76898;BMP180;65856;52.178;21.176;2023-11-21T13:45:53;100303.00;;;0.20
76898;BMP180;65856;52.178;21.176;2023-11-21T13:49:08;100307.80;;;0.20
76898;BMP180;65856;52.178;21.176;2023-11-21T13:51:36;100313.00;;;0.20
76898;BMP180;65856;52.178;21.176;2023-11-21T13:54:11;100322.00;;;0.20
76898;BMP180;65856;52.178;21.176;2023-11-21T13:56:37;100327.20;;;0.16
76898;BMP180;65856;52.178;21.176;2023-11-21T13:59:04;100330.40;;;0.10
76898;BMP180;65856;52.178;21.176;2023-11-21T14:01:42;100340.20;;;0.10
76898;BMP180;65856;52.178;21.176;2023-11-21T14:04:21;100339.20;;;0.20
76898;BMP180;65856;52.178;21.176;2023-11-21T14:07:02;100348.60;;;0.18
76898;BMP180;65856;52.178;21.176;2023-11-21T14:09:45;100349.60;;;0.20
76898;BMP180;65856;52.178;21.176;2023-11-21T14:12:11;100359.20;;;0.20
76898;BMP180;65856;52.178;21.176;2023-11-21T14:14:38;100371.40;;;0.20
76898;BMP180;65856;52.178;21.176;2023-11-21T14:17:05;100377.20;;;0.16
76898;BMP180;65856;52.178;21.176;2023-11-21T14:19:32;100380.60;;;0.12